sensor_id;sensor_type;location;lat;lon;timestamp;temperature;humidity
14378;DHT22;7272;53.668;9.578;2023-02-12T00:01:42;8.10;99.90
14378;DHT22;7272;53.668;9.578;2023-02-12T00:04:46;8.10;99.90
14378;DHT22;7272;53.668;9.578;2023-02-12T00:07:48;8.10;99.90
14378;DHT22;7272;53.668;9.578;2023-02-12T00:10:50;8.10;99.90
14378;DHT22;7272;53.668;9.578;2023-02-12T00:13:53;8.10;99.90
14378;DHT22;7272;53.668;9.578;2023-02-12T00:16:56;8.10;99.90
14378;DHT22;7272;53.668;9.578;2023-02-12T00:19:58;8.10;99.90
14378;DHT22;7272;53.668;9.578;2023-02-12T00:23:00;8.00;99.90
14378;DHT22;7272;53.668;9.578;2023-02-12T00:26:04;8.00;99.90
14378;DHT22;7272;53.668;9.578;2023-02-12T00:29:07;8.00;99.90
14378;DHT22;7272;53.668;9.578;2023-02-12T00:32:10;8.00;99.90
14378;DHT22;7272;53.668;9.578;2023-02-12T00:35:14;8.00;99.90
14378;DHT22;7272;53.668;9.578;2023-02-12T00:38:15;8.00;99.90
14378;DHT22;7272;53.668;9.578;2023-02-12T00:41:19;8.00;99.90
14378;DHT22;7272;53.668;9.578;2023-02-12T00:44:21;8.00;99.90
14378;DHT22;7272;53.668;9.578;2023-02-12T00:47:24;8.10;99.90
14378;DHT22;7272;53.668;9.578;2023-02-12T00:50:26;8.10;99.90
14378;DHT22;7272;53.668;9.578;2023-02-12T00:53:29;8.10;99.90
14378;DHT22;7272;53.668;9.578;2023-02-12T00:56:31;8.10;99.90
14378;DHT22;7272;53.668;9.578;2023-02-12T00:59:33;8.00;99.90
14378;DHT22;7272;53.668;9.578;2023-02-12T01:02:37;8.00;99.90
14378;DHT22;7272;53.668;9.578;2023-02-12T01:05:41;8.10;99.90
14378;DHT22;7272;53.668;9.578;2023-02-12T01:08:43;8.00;99.90
14378;DHT22;7272;53.668;9.578;2023-02-12T01:11:45;8.00;99.90
14378;DHT22;7272;53.668;9.578;2023-02-12T01:14:47;8.00;99.90
14378;DHT22;7272;53.668;9.578;2023-02-12T01:17:51;8.00;99.90
14378;DHT22;7272;53.668;9.578;2023-02-12T01:20:53;8.00;99.90
14378;DHT22;7272;53.668;9.578;2023-02-12T01:23:58;8.00;99.90
14378;DHT22;7272;53.668;9.578;2023-02-12T01:27:00;7.90;99.90
14378;DHT22;7272;53.668;9.578;2023-02-12T01:30:05;7.90;99.90
14378;DHT22;7272;53.668;9.578;2023-02-12T01:33:09;7.90;99.90
14378;DHT22;7272;53.668;9.578;2023-02-12T01:36:11;7.90;99.90
14378;DHT22;7272;53.668;9.578;2023-02-12T01:39:13;7.90;99.90
14378;DHT22;7272;53.668;9.578;2023-02-12T01:42:15;8.00;99.90
14378;DHT22;7272;53.668;9.578;2023-02-12T01:45:46;7.90;99.90
14378;DHT22;7272;53.668;9.578;2023-02-12T01:48:49;7.90;99.90
14378;DHT22;7272;53.668;9.578;2023-02-12T01:51:54;7.90;99.90
14378;DHT22;7272;53.668;9.578;2023-02-12T01:55:01;7.90;99.90
14378;DHT22;7272;53.668;9.578;2023-02-12T01:58:05;7.90;99.90
14378;DHT22;7272;53.668;9.578;2023-02-12T02:01:14;7.90;99.90
14378;DHT22;7272;53.668;9.578;2023-02-12T02:04:23;7.90;99.90
14378;DHT22;7272;53.668;9.578;2023-02-12T02:07:26;7.90;99.90
14378;DHT22;7272;53.668;9.578;2023-02-12T02:10:28;7.90;99.90
14378;DHT22;7272;53.668;9.578;2023-02-12T02:13:31;7.90;99.90
14378;DHT22;7272;53.668;9.578;2023-02-12T02:16:58;7.90;99.90
14378;DHT22;7272;53.668;9.578;2023-02-12T02:23:54;7.90;99.90
14378;DHT22;7272;53.668;9.578;2023-02-12T02:27:10;8.00;99.90
14378;DHT22;7272;53.668;9.578;2023-02-12T02:30:27;7.90;99.90
14378;DHT22;7272;53.668;9.578;2023-02-12T02:33:37;7.90;99.90
14378;DHT22;7272;53.668;9.578;2023-02-12T02:36:44;8.00;99.90
14378;DHT22;7272;53.668;9.578;2023-02-12T02:39:51;8.00;99.90
14378;DHT22;7272;53.668;9.578;2023-02-12T02:42:58;8.00;99.90
14378;DHT22;7272;53.668;9.578;2023-02-12T02:46:06;8.00;99.90
14378;DHT22;7272;53.668;9.578;2023-02-12T02:49:16;8.00;99.90
14378;DHT22;7272;53.668;9.578;2023-02-12T02:52:22;8.00;99.90
14378;DHT22;7272;53.668;9.578;2023-02-12T02:55:28;8.00;99.90
14378;DHT22;7272;53.668;9.578;2023-02-12T02:58:34;8.10;99.90
14378;DHT22;7272;53.668;9.578;2023-02-12T03:01:42;8.20;99.90
14378;DHT22;7272;53.668;9.578;2023-02-12T03:04:48;8.20;99.90
14378;DHT22;7272;53.668;9.578;2023-02-12T03:07:56;8.30;99.90
14378;DHT22;7272;53.668;9.578;2023-02-12T03:11:04;8.30;99.90
14378;DHT22;7272;53.668;9.578;2023-02-12T03:14:13;8.40;99.90
14378;DHT22;7272;53.668;9.578;2023-02-12T03:17:20;8.40;99.90
14378;DHT22;7272;53.668;9.578;2023-02-12T03:20:29;8.40;99.90
14378;DHT22;7272;53.668;9.578;2023-02-12T03:23:37;8.40;99.90
14378;DHT22;7272;53.668;9.578;2023-02-12T03:26:45;8.50;99.90
14378;DHT22;7272;53.668;9.578;2023-02-12T03:29:47;8.50;99.90
14378;DHT22;7272;53.668;9.578;2023-02-12T03:32:53;8.50;99.90
14378;DHT22;7272;53.668;9.578;2023-02-12T03:36:01;8.60;99.90
14378;DHT22;7272;53.668;9.578;2023-02-12T03:39:11;8.60;99.90
14378;DHT22;7272;53.668;9.578;2023-02-12T03:42:17;8.60;99.90
14378;DHT22;7272;53.668;9.578;2023-02-12T03:45:27;8.60;99.90
14378;DHT22;7272;53.668;9.578;2023-02-12T03:48:35;8.60;99.90
14378;DHT22;7272;53.668;9.578;2023-02-12T03:51:39;8.60;99.90
14378;DHT22;7272;53.668;9.578;2023-02-12T03:54:42;8.60;99.90
14378;DHT22;7272;53.668;9.578;2023-02-12T03:57:46;8.70;99.90
14378;DHT22;7272;53.668;9.578;2023-02-12T04:00:50;8.70;99.90
14378;DHT22;7272;53.668;9.578;2023-02-12T04:03:54;8.70;99.90
14378;DHT22;7272;53.668;9.578;2023-02-12T04:06:57;8.80;99.90
14378;DHT22;7272;53.668;9.578;2023-02-12T04:09:59;8.80;99.90
14378;DHT22;7272;53.668;9.578;2023-02-12T04:13:08;8.90;99.90
14378;DHT22;7272;53.668;9.578;2023-02-12T04:16:19;8.90;99.90
14378;DHT22;7272;53.668;9.578;2023-02-12T04:19:30;8.90;99.90
14378;DHT22;7272;53.668;9.578;2023-02-12T04:22:45;8.90;99.90
14378;DHT22;7272;53.668;9.578;2023-02-12T04:25:55;8.90;99.90
14378;DHT22;7272;53.668;9.578;2023-02-12T04:29:15;8.90;99.90
14378;DHT22;7272;53.668;9.578;2023-02-12T04:32:23;9.00;99.90
14378;DHT22;7272;53.668;9.578;2023-02-12T04:35:31;8.90;99.90
14378;DHT22;7272;53.668;9.578;2023-02-12T04:38:38;8.90;99.90
14378;DHT22;7272;53.668;9.578;2023-02-12T04:41:41;8.90;99.90
14378;DHT22;7272;53.668;9.578;2023-02-12T04:44:43;8.90;99.90
14378;DHT22;7272;53.668;9.578;2023-02-12T04:47:45;8.90;99.90
14378;DHT22;7272;53.668;9.578;2023-02-12T04:50:49;8.80;99.90
14378;DHT22;7272;53.668;9.578;2023-02-12T04:53:51;8.80;99.90
14378;DHT22;7272;53.668;9.578;2023-02-12T04:56:53;8.80;99.90
14378;DHT22;7272;53.668;9.578;2023-02-12T04:59:55;8.80;99.90
14378;DHT22;7272;53.668;9.578;2023-02-12T05:02:56;8.80;99.90
14378;DHT22;7272;53.668;9.578;2023-02-12T05:06:02;8.80;99.90
14378;DHT22;7272;53.668;9.578;2023-02-12T05:09:05;8.90;99.90
14378;DHT22;7272;53.668;9.578;2023-02-12T05:12:08;8.80;99.90
14378;DHT22;7272;53.668;9.578;2023-02-12T05:15:10;8.80;99.90
14378;DHT22;7272;53.668;9.578;2023-02-12T05:18:12;8.80;99.90
14378;DHT22;7272;53.668;9.578;2023-02-12T05:21:15;8.90;99.90
14378;DHT22;7272;53.668;9.578;2023-02-12T05:24:17;8.90;99.90
14378;DHT22;7272;53.668;9.578;2023-02-12T05:27:19;8.90;99.90
14378;DHT22;7272;53.668;9.578;2023-02-12T05:30:21;8.90;99.90
14378;DHT22;7272;53.668;9.578;2023-02-12T05:33:23;8.90;99.90
14378;DHT22;7272;53.668;9.578;2023-02-12T05:36:27;8.90;99.90
14378;DHT22;7272;53.668;9.578;2023-02-12T05:39:29;8.90;99.90
14378;DHT22;7272;53.668;9.578;2023-02-12T05:42:31;8.90;99.90
14378;DHT22;7272;53.668;9.578;2023-02-12T05:45:33;8.90;99.90
14378;DHT22;7272;53.668;9.578;2023-02-12T05:48:35;8.90;99.90
14378;DHT22;7272;53.668;9.578;2023-02-12T05:51:39;8.90;99.90
14378;DHT22;7272;53.668;9.578;2023-02-12T05:54:41;8.90;99.90
14378;DHT22;7272;53.668;9.578;2023-02-12T05:57:42;9.00;99.90
14378;DHT22;7272;53.668;9.578;2023-02-12T06:00:44;9.00;99.90
14378;DHT22;7272;53.668;9.578;2023-02-12T06:03:47;8.90;99.90
14378;DHT22;7272;53.668;9.578;2023-02-12T06:06:50;9.00;99.90
14378;DHT22;7272;53.668;9.578;2023-02-12T06:09:52;9.00;99.90
14378;DHT22;7272;53.668;9.578;2023-02-12T06:12:54;9.00;99.90
14378;DHT22;7272;53.668;9.578;2023-02-12T06:15:59;9.00;99.90
14378;DHT22;7272;53.668;9.578;2023-02-12T06:19:03;9.00;99.90
14378;DHT22;7272;53.668;9.578;2023-02-12T06:22:07;9.00;99.90
14378;DHT22;7272;53.668;9.578;2023-02-12T06:25:08;9.00;99.90
14378;DHT22;7272;53.668;9.578;2023-02-12T06:28:10;8.90;99.90
14378;DHT22;7272;53.668;9.578;2023-02-12T06:31:17;8.90;99.90
14378;DHT22;7272;53.668;9.578;2023-02-12T06:34:19;8.90;99.90
14378;DHT22;7272;53.668;9.578;2023-02-12T06:37:22;8.90;99.90
14378;DHT22;7272;53.668;9.578;2023-02-12T06:40:24;8.90;99.90
14378;DHT22;7272;53.668;9.578;2023-02-12T06:43:26;8.90;99.90
14378;DHT22;7272;53.668;9.578;2023-02-12T06:46:28;8.90;99.90
14378;DHT22;7272;53.668;9.578;2023-02-12T06:49:30;8.90;99.90
14378;DHT22;7272;53.668;9.578;2023-02-12T06:52:33;8.90;99.90
14378;DHT22;7272;53.668;9.578;2023-02-12T06:55:35;8.90;99.90
14378;DHT22;7272;53.668;9.578;2023-02-12T06:58:37;9.00;99.90
14378;DHT22;7272;53.668;9.578;2023-02-12T07:01:40;8.90;99.90
14378;DHT22;7272;53.668;9.578;2023-02-12T07:04:42;9.00;99.90
14378;DHT22;7272;53.668;9.578;2023-02-12T07:07:45;8.90;99.90
14378;DHT22;7272;53.668;9.578;2023-02-12T07:10:48;8.90;99.90
14378;DHT22;7272;53.668;9.578;2023-02-12T07:13:50;9.00;99.90
14378;DHT22;7272;53.668;9.578;2023-02-12T07:16:53;9.00;99.90
14378;DHT22;7272;53.668;9.578;2023-02-12T07:19:54;9.00;99.90
14378;DHT22;7272;53.668;9.578;2023-02-12T07:22:58;9.00;99.90
14378;DHT22;7272;53.668;9.578;2023-02-12T07:26:02;9.00;99.90
14378;DHT22;7272;53.668;9.578;2023-02-12T07:29:04;9.00;99.90
14378;DHT22;7272;53.668;9.578;2023-02-12T07:32:06;9.00;99.90
14378;DHT22;7272;53.668;9.578;2023-02-12T07:35:08;9.10;99.90
14378;DHT22;7272;53.668;9.578;2023-02-12T07:38:11;9.10;99.90
14378;DHT22;7272;53.668;9.578;2023-02-12T07:41:16;9.10;99.90
14378;DHT22;7272;53.668;9.578;2023-02-12T07:44:18;9.10;99.90
14378;DHT22;7272;53.668;9.578;2023-02-12T07:47:20;9.10;99.90
14378;DHT22;7272;53.668;9.578;2023-02-12T07:50:22;9.10;99.90
14378;DHT22;7272;53.668;9.578;2023-02-12T07:53:26;9.10;99.90
14378;DHT22;7272;53.668;9.578;2023-02-12T07:56:30;9.10;99.90
14378;DHT22;7272;53.668;9.578;2023-02-12T07:59:33;9.10;99.90
14378;DHT22;7272;53.668;9.578;2023-02-12T08:02:35;9.00;99.90
14378;DHT22;7272;53.668;9.578;2023-02-12T08:05:37;9.10;99.90
14378;DHT22;7272;53.668;9.578;2023-02-12T08:08:40;9.20;99.90
14378;DHT22;7272;53.668;9.578;2023-02-12T08:11:43;9.20;99.90
14378;DHT22;7272;53.668;9.578;2023-02-12T08:14:45;9.20;99.90
14378;DHT22;7272;53.668;9.578;2023-02-12T08:17:47;9.20;99.90
14378;DHT22;7272;53.668;9.578;2023-02-12T08:20:49;9.30;99.90
14378;DHT22;7272;53.668;9.578;2023-02-12T08:23:54;9.30;99.90
14378;DHT22;7272;53.668;9.578;2023-02-12T08:26:57;9.30;99.90
14378;DHT22;7272;53.668;9.578;2023-02-12T08:29:59;9.30;99.90
14378;DHT22;7272;53.668;9.578;2023-02-12T08:33:01;9.30;99.90
14378;DHT22;7272;53.668;9.578;2023-02-12T08:36:05;9.30;99.90
14378;DHT22;7272;53.668;9.578;2023-02-12T08:39:13;9.40;99.90
14378;DHT22;7272;53.668;9.578;2023-02-12T08:42:15;9.40;99.90
14378;DHT22;7272;53.668;9.578;2023-02-12T08:45:17;9.40;99.90
14378;DHT22;7272;53.668;9.578;2023-02-12T08:48:19;9.50;99.90
14378;DHT22;7272;53.668;9.578;2023-02-12T08:51:23;9.60;99.90
14378;DHT22;7272;53.668;9.578;2023-02-12T08:54:27;9.60;99.90
14378;DHT22;7272;53.668;9.578;2023-02-12T08:57:30;9.60;99.90
14378;DHT22;7272;53.668;9.578;2023-02-12T09:00:34;9.60;99.90
14378;DHT22;7272;53.668;9.578;2023-02-12T09:03:36;9.70;99.90
14378;DHT22;7272;53.668;9.578;2023-02-12T09:06:38;9.70;99.90
14378;DHT22;7272;53.668;9.578;2023-02-12T09:09:41;9.80;99.90
14378;DHT22;7272;53.668;9.578;2023-02-12T09:12:43;9.80;99.90
14378;DHT22;7272;53.668;9.578;2023-02-12T09:15:45;9.90;99.90
14378;DHT22;7272;53.668;9.578;2023-02-12T09:18:47;9.80;99.90
14378;DHT22;7272;53.668;9.578;2023-02-12T09:21:50;9.80;99.90
14378;DHT22;7272;53.668;9.578;2023-02-12T09:24:54;9.80;99.90
14378;DHT22;7272;53.668;9.578;2023-02-12T09:27:56;9.80;99.90
14378;DHT22;7272;53.668;9.578;2023-02-12T09:31:01;9.80;99.90
14378;DHT22;7272;53.668;9.578;2023-02-12T09:34:05;9.80;99.90
14378;DHT22;7272;53.668;9.578;2023-02-12T09:37:08;9.80;99.90
14378;DHT22;7272;53.668;9.578;2023-02-12T09:40:18;9.80;99.90
14378;DHT22;7272;53.668;9.578;2023-02-12T09:43:27;9.80;99.90
14378;DHT22;7272;53.668;9.578;2023-02-12T09:46:34;9.90;99.90
14378;DHT22;7272;53.668;9.578;2023-02-12T09:50:02;9.90;99.90
14378;DHT22;7272;53.668;9.578;2023-02-12T09:53:10;10.00;99.90
14378;DHT22;7272;53.668;9.578;2023-02-12T09:56:17;10.00;99.90
14378;DHT22;7272;53.668;9.578;2023-02-12T09:59:27;10.00;99.90
14378;DHT22;7272;53.668;9.578;2023-02-12T10:02:29;10.10;99.90
14378;DHT22;7272;53.668;9.578;2023-02-12T10:05:34;10.00;99.90
14378;DHT22;7272;53.668;9.578;2023-02-12T10:09:07;10.00;99.90
14378;DHT22;7272;53.668;9.578;2023-02-12T10:12:21;10.00;99.90
14378;DHT22;7272;53.668;9.578;2023-02-12T10:15:31;10.00;99.90
14378;DHT22;7272;53.668;9.578;2023-02-12T10:19:03;10.00;99.90
14378;DHT22;7272;53.668;9.578;2023-02-12T10:22:12;10.10;99.90
14378;DHT22;7272;53.668;9.578;2023-02-12T10:25:23;10.20;99.90
14378;DHT22;7272;53.668;9.578;2023-02-12T10:28:31;10.20;99.90
14378;DHT22;7272;53.668;9.578;2023-02-12T10:31:37;10.20;99.90
14378;DHT22;7272;53.668;9.578;2023-02-12T10:34:41;10.10;99.90
14378;DHT22;7272;53.668;9.578;2023-02-12T10:37:49;10.10;99.90
14378;DHT22;7272;53.668;9.578;2023-02-12T10:40:53;10.10;99.90
14378;DHT22;7272;53.668;9.578;2023-02-12T10:43:59;10.10;99.90
14378;DHT22;7272;53.668;9.578;2023-02-12T10:47:01;10.00;99.90
14378;DHT22;7272;53.668;9.578;2023-02-12T10:50:16;10.00;99.90
14378;DHT22;7272;53.668;9.578;2023-02-12T10:53:23;10.00;99.90
14378;DHT22;7272;53.668;9.578;2023-02-12T10:56:25;10.00;99.90
14378;DHT22;7272;53.668;9.578;2023-02-12T10:59:28;10.00;99.90
14378;DHT22;7272;53.668;9.578;2023-02-12T11:02:32;10.00;99.90
14378;DHT22;7272;53.668;9.578;2023-02-12T11:05:37;9.90;99.90
14378;DHT22;7272;53.668;9.578;2023-02-12T11:08:39;9.90;99.90
14378;DHT22;7272;53.668;9.578;2023-02-12T11:11:41;10.00;99.90
14378;DHT22;7272;53.668;9.578;2023-02-12T11:14:48;10.00;99.90
14378;DHT22;7272;53.668;9.578;2023-02-12T11:17:56;10.00;99.90
14378;DHT22;7272;53.668;9.578;2023-02-12T11:21:00;9.90;99.90
14378;DHT22;7272;53.668;9.578;2023-02-12T11:24:31;10.10;99.90
14378;DHT22;7272;53.668;9.578;2023-02-12T11:27:33;10.10;99.90
14378;DHT22;7272;53.668;9.578;2023-02-12T11:30:48;10.10;99.90
14378;DHT22;7272;53.668;9.578;2023-02-12T11:34:06;10.00;99.90
14378;DHT22;7272;53.668;9.578;2023-02-12T11:37:14;10.00;99.90
14378;DHT22;7272;53.668;9.578;2023-02-12T11:40:22;10.00;99.90
14378;DHT22;7272;53.668;9.578;2023-02-12T11:43:26;10.00;99.90
14378;DHT22;7272;53.668;9.578;2023-02-12T11:46:30;10.00;99.90
14378;DHT22;7272;53.668;9.578;2023-02-12T11:49:36;9.90;99.90
14378;DHT22;7272;53.668;9.578;2023-02-12T11:52:39;10.00;99.90
14378;DHT22;7272;53.668;9.578;2023-02-12T11:55:52;9.90;99.90
14378;DHT22;7272;53.668;9.578;2023-02-12T11:59:11;9.90;99.90
14378;DHT22;7272;53.668;9.578;2023-02-12T12:02:31;9.90;99.90
14378;DHT22;7272;53.668;9.578;2023-02-12T12:05:39;9.90;99.90
14378;DHT22;7272;53.668;9.578;2023-02-12T12:08:43;10.00;99.90
14378;DHT22;7272;53.668;9.578;2023-02-12T12:11:56;10.00;99.90
14378;DHT22;7272;53.668;9.578;2023-02-12T12:15:03;10.00;99.90
14378;DHT22;7272;53.668;9.578;2023-02-12T12:18:30;10.00;99.90
14378;DHT22;7272;53.668;9.578;2023-02-12T12:21:57;10.00;99.90
14378;DHT22;7272;53.668;9.578;2023-02-12T12:25:07;10.00;99.90
14378;DHT22;7272;53.668;9.578;2023-02-12T12:28:24;10.00;99.90
14378;DHT22;7272;53.668;9.578;2023-02-12T12:31:32;9.90;99.90
14378;DHT22;7272;53.668;9.578;2023-02-12T12:34:36;9.90;99.90
14378;DHT22;7272;53.668;9.578;2023-02-12T12:37:42;9.90;99.90
14378;DHT22;7272;53.668;9.578;2023-02-12T12:40:57;9.90;99.90
14378;DHT22;7272;53.668;9.578;2023-02-12T12:44:13;9.90;99.90
14378;DHT22;7272;53.668;9.578;2023-02-12T12:47:24;10.10;99.90
14378;DHT22;7272;53.668;9.578;2023-02-12T12:50:45;10.10;99.90
14378;DHT22;7272;53.668;9.578;2023-02-12T12:54:02;10.20;99.90
14378;DHT22;7272;53.668;9.578;2023-02-12T12:57:13;10.20;99.90
14378;DHT22;7272;53.668;9.578;2023-02-12T13:00:34;10.20;99.90
14378;DHT22;7272;53.668;9.578;2023-02-12T13:04:13;10.10;99.90
14378;DHT22;7272;53.668;9.578;2023-02-12T13:07:34;10.10;99.90
14378;DHT22;7272;53.668;9.578;2023-02-12T13:10:46;10.10;99.90
14378;DHT22;7272;53.668;9.578;2023-02-12T13:13:55;10.00;99.90
14378;DHT22;7272;53.668;9.578;2023-02-12T13:17:03;10.00;99.90
14378;DHT22;7272;53.668;9.578;2023-02-12T13:20:12;10.10;99.90
14378;DHT22;7272;53.668;9.578;2023-02-12T13:23:22;10.00;99.90
14378;DHT22;7272;53.668;9.578;2023-02-12T13:26:29;10.10;99.90
14378;DHT22;7272;53.668;9.578;2023-02-12T13:29:36;10.00;99.90
14378;DHT22;7272;53.668;9.578;2023-02-12T13:32:42;10.00;99.90
14378;DHT22;7272;53.668;9.578;2023-02-12T13:35:48;10.00;99.90
14378;DHT22;7272;53.668;9.578;2023-02-12T13:38:57;10.10;99.90
14378;DHT22;7272;53.668;9.578;2023-02-12T13:42:14;10.10;99.90
14378;DHT22;7272;53.668;9.578;2023-02-12T13:45:26;10.10;99.90
14378;DHT22;7272;53.668;9.578;2023-02-12T13:48:42;10.10;99.90
14378;DHT22;7272;53.668;9.578;2023-02-12T13:51:46;10.00;99.90
14378;DHT22;7272;53.668;9.578;2023-02-12T13:54:58;10.10;99.90
14378;DHT22;7272;53.668;9.578;2023-02-12T14:01:44;10.10;99.90
14378;DHT22;7272;53.668;9.578;2023-02-12T14:04:54;10.10;99.90
14378;DHT22;7272;53.668;9.578;2023-02-12T14:07:59;10.20;99.90
14378;DHT22;7272;53.668;9.578;2023-02-12T14:11:07;10.20;99.90
14378;DHT22;7272;53.668;9.578;2023-02-12T14:14:10;10.30;99.90
14378;DHT22;7272;53.668;9.578;2023-02-12T14:17:40;10.30;99.90
14378;DHT22;7272;53.668;9.578;2023-02-12T14:20:43;10.30;99.90
14378;DHT22;7272;53.668;9.578;2023-02-12T14:23:46;10.30;99.90
14378;DHT22;7272;53.668;9.578;2023-02-12T14:26:52;10.30;99.90
14378;DHT22;7272;53.668;9.578;2023-02-12T14:30:20;10.30;99.90
14378;DHT22;7272;53.668;9.578;2023-02-12T14:33:26;10.20;99.90
14378;DHT22;7272;53.668;9.578;2023-02-12T14:37:11;10.20;99.90
14378;DHT22;7272;53.668;9.578;2023-02-12T14:40:38;10.20;99.90
14378;DHT22;7272;53.668;9.578;2023-02-12T14:43:45;10.10;99.90
14378;DHT22;7272;53.668;9.578;2023-02-12T14:47:03;10.10;99.90
14378;DHT22;7272;53.668;9.578;2023-02-12T14:50:13;10.10;99.90
14378;DHT22;7272;53.668;9.578;2023-02-12T14:53:25;10.10;99.90
14378;DHT22;7272;53.668;9.578;2023-02-12T14:56:31;10.20;99.90
14378;DHT22;7272;53.668;9.578;2023-02-12T14:59:40;10.10;99.90
14378;DHT22;7272;53.668;9.578;2023-02-12T15:02:47;10.10;99.90
14378;DHT22;7272;53.668;9.578;2023-02-12T15:05:58;10.10;99.90
14378;DHT22;7272;53.668;9.578;2023-02-12T15:09:06;10.00;99.90
14378;DHT22;7272;53.668;9.578;2023-02-12T15:12:18;10.00;99.90
14378;DHT22;7272;53.668;9.578;2023-02-12T15:15:26;10.00;99.90
14378;DHT22;7272;53.668;9.578;2023-02-12T15:18:43;9.90;99.90
14378;DHT22;7272;53.668;9.578;2023-02-12T15:21:47;9.90;99.90
14378;DHT22;7272;53.668;9.578;2023-02-12T15:24:51;9.90;99.90
14378;DHT22;7272;53.668;9.578;2023-02-12T15:27:56;10.00;99.90
14378;DHT22;7272;53.668;9.578;2023-02-12T15:31:00;10.00;99.90
14378;DHT22;7272;53.668;9.578;2023-02-12T15:34:03;10.00;99.90
14378;DHT22;7272;53.668;9.578;2023-02-12T15:37:07;10.00;99.90
14378;DHT22;7272;53.668;9.578;2023-02-12T15:40:14;10.00;99.90
14378;DHT22;7272;53.668;9.578;2023-02-12T15:43:17;9.90;99.90
14378;DHT22;7272;53.668;9.578;2023-02-12T15:46:21;9.90;99.90
14378;DHT22;7272;53.668;9.578;2023-02-12T15:49:28;9.80;99.90
14378;DHT22;7272;53.668;9.578;2023-02-12T15:52:33;9.90;99.90
14378;DHT22;7272;53.668;9.578;2023-02-12T15:55:38;9.80;99.90
14378;DHT22;7272;53.668;9.578;2023-02-12T15:58:46;9.80;99.90
14378;DHT22;7272;53.668;9.578;2023-02-12T16:01:56;9.80;99.90
14378;DHT22;7272;53.668;9.578;2023-02-12T16:05:02;9.70;99.90
14378;DHT22;7272;53.668;9.578;2023-02-12T16:08:05;9.70;99.90
14378;DHT22;7272;53.668;9.578;2023-02-12T16:11:09;9.60;99.90
14378;DHT22;7272;53.668;9.578;2023-02-12T16:14:19;9.60;99.90
14378;DHT22;7272;53.668;9.578;2023-02-12T16:17:28;9.60;99.90
14378;DHT22;7272;53.668;9.578;2023-02-12T16:20:31;9.50;99.90
14378;DHT22;7272;53.668;9.578;2023-02-12T16:23:34;9.50;99.90
14378;DHT22;7272;53.668;9.578;2023-02-12T16:26:36;9.50;99.90
14378;DHT22;7272;53.668;9.578;2023-02-12T16:29:44;9.50;99.90
14378;DHT22;7272;53.668;9.578;2023-02-12T16:32:47;9.50;99.90
14378;DHT22;7272;53.668;9.578;2023-02-12T16:36:00;9.60;99.90
14378;DHT22;7272;53.668;9.578;2023-02-12T16:39:04;9.70;99.90
14378;DHT22;7272;53.668;9.578;2023-02-12T16:42:13;9.60;99.90
14378;DHT22;7272;53.668;9.578;2023-02-12T16:45:36;9.60;99.90
14378;DHT22;7272;53.668;9.578;2023-02-12T16:48:41;9.60;99.90
14378;DHT22;7272;53.668;9.578;2023-02-12T16:51:44;9.60;99.90
14378;DHT22;7272;53.668;9.578;2023-02-12T16:54:47;9.70;99.90
14378;DHT22;7272;53.668;9.578;2023-02-12T16:57:48;9.70;99.90
14378;DHT22;7272;53.668;9.578;2023-02-12T17:00:51;9.70;99.90
14378;DHT22;7272;53.668;9.578;2023-02-12T17:03:55;9.70;99.90
14378;DHT22;7272;53.668;9.578;2023-02-12T17:06:57;9.70;99.90
14378;DHT22;7272;53.668;9.578;2023-02-12T17:09:59;9.70;99.90
14378;DHT22;7272;53.668;9.578;2023-02-12T17:13:01;9.60;99.90
14378;DHT22;7272;53.668;9.578;2023-02-12T17:16:04;9.60;99.90
14378;DHT22;7272;53.668;9.578;2023-02-12T17:19:07;9.60;99.90
14378;DHT22;7272;53.668;9.578;2023-02-12T17:22:16;9.50;99.90
14378;DHT22;7272;53.668;9.578;2023-02-12T17:25:19;9.50;99.90
14378;DHT22;7272;53.668;9.578;2023-02-12T17:28:21;9.50;99.90
14378;DHT22;7272;53.668;9.578;2023-02-12T17:31:24;9.50;99.90
14378;DHT22;7272;53.668;9.578;2023-02-12T17:34:28;9.50;99.90
14378;DHT22;7272;53.668;9.578;2023-02-12T17:37:29;9.50;99.90
14378;DHT22;7272;53.668;9.578;2023-02-12T17:40:33;9.50;99.90
14378;DHT22;7272;53.668;9.578;2023-02-12T17:43:35;9.40;99.90
14378;DHT22;7272;53.668;9.578;2023-02-12T17:46:37;9.40;99.90
14378;DHT22;7272;53.668;9.578;2023-02-12T17:49:41;9.40;99.90
14378;DHT22;7272;53.668;9.578;2023-02-12T17:52:43;9.40;99.90
14378;DHT22;7272;53.668;9.578;2023-02-12T17:55:45;9.40;99.90
14378;DHT22;7272;53.668;9.578;2023-02-12T17:58:48;9.40;99.90
14378;DHT22;7272;53.668;9.578;2023-02-12T18:01:50;9.40;99.90
14378;DHT22;7272;53.668;9.578;2023-02-12T18:04:53;9.40;99.90
14378;DHT22;7272;53.668;9.578;2023-02-12T18:07:55;9.40;99.90
14378;DHT22;7272;53.668;9.578;2023-02-12T18:10:57;9.30;99.90
14378;DHT22;7272;53.668;9.578;2023-02-12T18:13:59;9.30;99.90
14378;DHT22;7272;53.668;9.578;2023-02-12T18:17:02;9.30;99.90
14378;DHT22;7272;53.668;9.578;2023-02-12T18:20:07;9.30;99.90
14378;DHT22;7272;53.668;9.578;2023-02-12T18:23:09;9.30;99.90
14378;DHT22;7272;53.668;9.578;2023-02-12T18:26:14;9.30;99.90
14378;DHT22;7272;53.668;9.578;2023-02-12T18:29:16;9.20;99.90
14378;DHT22;7272;53.668;9.578;2023-02-12T18:32:18;9.20;99.90
14378;DHT22;7272;53.668;9.578;2023-02-12T18:35:21;9.20;99.90
14378;DHT22;7272;53.668;9.578;2023-02-12T18:38:23;9.20;99.90
14378;DHT22;7272;53.668;9.578;2023-02-12T18:41:27;9.20;99.90
14378;DHT22;7272;53.668;9.578;2023-02-12T18:44:29;9.20;99.90
14378;DHT22;7272;53.668;9.578;2023-02-12T18:47:31;9.20;99.90
14378;DHT22;7272;53.668;9.578;2023-02-12T18:50:34;9.20;99.90
14378;DHT22;7272;53.668;9.578;2023-02-12T18:53:36;9.20;99.90
14378;DHT22;7272;53.668;9.578;2023-02-12T18:56:40;9.20;99.90
14378;DHT22;7272;53.668;9.578;2023-02-12T18:59:43;9.20;99.90
14378;DHT22;7272;53.668;9.578;2023-02-12T19:02:45;9.20;99.90
14378;DHT22;7272;53.668;9.578;2023-02-12T19:05:48;9.20;99.90
14378;DHT22;7272;53.668;9.578;2023-02-12T19:08:53;9.20;99.90
14378;DHT22;7272;53.668;9.578;2023-02-12T19:11:57;9.20;99.90
14378;DHT22;7272;53.668;9.578;2023-02-12T19:15:00;9.20;99.90
14378;DHT22;7272;53.668;9.578;2023-02-12T19:18:02;9.20;99.90
14378;DHT22;7272;53.668;9.578;2023-02-12T19:21:07;9.20;99.90
14378;DHT22;7272;53.668;9.578;2023-02-12T19:24:11;9.20;99.90
14378;DHT22;7272;53.668;9.578;2023-02-12T19:27:13;9.20;99.90
14378;DHT22;7272;53.668;9.578;2023-02-12T19:30:15;9.20;99.90
14378;DHT22;7272;53.668;9.578;2023-02-12T19:33:17;9.20;99.90
14378;DHT22;7272;53.668;9.578;2023-02-12T19:36:21;9.20;99.90
14378;DHT22;7272;53.668;9.578;2023-02-12T19:39:23;9.20;99.90
14378;DHT22;7272;53.668;9.578;2023-02-12T19:42:25;9.10;99.90
14378;DHT22;7272;53.668;9.578;2023-02-12T19:45:27;9.10;99.90
14378;DHT22;7272;53.668;9.578;2023-02-12T19:48:29;9.10;99.90
14378;DHT22;7272;53.668;9.578;2023-02-12T19:51:32;9.10;99.90
14378;DHT22;7272;53.668;9.578;2023-02-12T19:54:34;9.10;99.90
14378;DHT22;7272;53.668;9.578;2023-02-12T19:57:36;9.00;99.90
14378;DHT22;7272;53.668;9.578;2023-02-12T20:00:38;9.00;99.90
14378;DHT22;7272;53.668;9.578;2023-02-12T20:03:40;9.10;99.90
14378;DHT22;7272;53.668;9.578;2023-02-12T20:06:44;9.10;99.90
14378;DHT22;7272;53.668;9.578;2023-02-12T20:09:49;9.10;99.90
14378;DHT22;7272;53.668;9.578;2023-02-12T20:12:51;9.10;99.90
14378;DHT22;7272;53.668;9.578;2023-02-12T20:15:53;9.00;99.90